Time;durP1;ratioP1;P1;durP2;ratioP2;P2;SDS_P1;SDS_P2;PMS_P1;PMS_P2;Temp;Humidity;BMP_temperature;BMP_pressure;BME280_temperature;BME280_humidity;BME280_pressure;Samples;Min_cycle;Max_cycle;Signal;HPM_P1;HPM_P2
2023/12/18 00:01:25;;;;;;;287.27;178.88;;;-0.10;99.90;;;;;;4961756;28;20039;-78
2023/12/18 00:03:54;;;;;;;266.45;165.68;;;-0.10;99.90;;;;;;4960989;28;20051;-77
2023/12/18 00:06:22;;;;;;;280.65;173.98;;;-0.20;99.90;;;;;;4960513;28;20527;-78
2023/12/18 00:08:49;;;;;;;288.60;179.93;;;-0.20;99.90;;;;;;4962187;28;20483;-78
2023/12/18 00:11:17;;;;;;;270.50;166.05;;;-0.20;99.90;;;;;;4963049;28;20071;-78
2023/12/18 00:13:44;;;;;;;250.57;150.80;;;-0.20;1.00;;;;;;4962248;28;20105;-80
2023/12/18 00:16:11;;;;;;;275.63;167.18;;;-0.20;1.00;;;;;;4962873;28;20050;-78
2023/12/18 00:18:39;;;;;;;282.90;178.57;;;-0.20;1.00;;;;;;4963192;28;20069;-79
2023/12/18 00:21:08;;;;;;;293.58;182.43;;;-0.10;1.00;;;;;;4961774;28;20118;-78
2023/12/18 00:23:35;;;;;;;297.35;184.52;;;-0.20;99.90;;;;;;4960257;28;20043;-79
2023/12/18 00:26:04;;;;;;;313.52;196.07;;;-0.20;99.90;;;;;;4961761;28;20506;-79
2023/12/18 00:28:31;;;;;;;306.55;195.95;;;-0.20;32.00;;;;;;4966004;28;20047;-79
2023/12/18 00:30:59;;;;;;;307.65;189.05;;;-0.30;80.80;;;;;;4971925;28;20043;-79
2023/12/18 00:33:27;;;;;;;308.50;190.98;;;-0.30;99.90;;;;;;4959921;28;20055;-79
2023/12/18 00:35:55;;;;;;;317.02;195.27;;;-0.30;99.90;;;;;;4941641;28;20050;-79
2023/12/18 00:38:24;;;;;;;302.88;181.07;;;-0.30;99.90;;;;;;4940961;29;20051;-79
2023/12/18 00:40:51;;;;;;;279.75;171.45;;;-0.30;99.90;;;;;;4942511;29;20044;-77
2023/12/18 00:43:18;;;;;;;298.92;181.30;;;-0.30;67.60;;;;;;4942740;29;20045;-79
2023/12/18 00:45:46;;;;;;;285.92;178.70;;;-0.30;1.00;;;;;;4942243;29;20400;-80
2023/12/18 00:48:13;;;;;;;282.55;175.60;;;-0.30;1.00;;;;;;4941291;29;20578;-78
2023/12/18 00:50:41;;;;;;;253.65;154.70;;;-0.40;1.00;;;;;;4945131;29;20050;-79
2023/12/18 00:53:09;;;;;;;258.13;151.40;;;-0.50;1.00;;;;;;4945462;29;20044;-78
2023/12/18 00:55:38;;;;;;;252.52;150.95;;;-0.50;1.00;;;;;;4949613;29;20535;-79
2023/12/18 00:58:06;;;;;;;209.02;127.90;;;-0.70;1.00;;;;;;4951005;29;20043;-78
2023/12/18 01:00:35;;;;;;;192.40;120.22;;;-0.60;99.90;;;;;;4948352;29;20043;-77
2023/12/18 01:03:02;;;;;;;208.82;127.63;;;-0.50;1.00;;;;;;4956398;28;20110;-78
2023/12/18 01:05:30;;;;;;;220.60;134.57;;;-0.50;1.00;;;;;;4942954;29;20047;-78
2023/12/18 01:07:58;;;;;;;258.88;153.10;;;-0.40;1.00;;;;;;4941423;29;20047;-77
2023/12/18 01:10:26;;;;;;;292.52;174.60;;;-0.40;1.00;;;;;;4943028;29;20092;-79
2023/12/18 01:12:55;;;;;;;291.02;171.00;;;-0.40;99.90;;;;;;4943570;29;20138;-79
2023/12/18 01:15:22;;;;;;;288.88;169.48;;;-0.40;1.00;;;;;;4940507;29;20051;-78
2023/12/18 01:17:50;;;;;;;273.58;155.20;;;-0.50;1.00;;;;;;4941239;29;20044;-78
2023/12/18 01:20:20;;;;;;;252.35;143.52;;;-0.50;1.00;;;;;;4942300;29;20091;-79
2023/12/18 01:22:50;;;;;;;231.88;133.15;;;-0.60;1.00;;;;;;4939880;29;20565;-78
2023/12/18 01:25:18;;;;;;;219.05;126.60;;;-0.60;1.00;;;;;;4940139;29;20075;-79
2023/12/18 01:27:46;;;;;;;215.90;128.65;;;-0.60;1.00;;;;;;4938464;29;20071;-79
2023/12/18 01:30:15;;;;;;;207.38;127.07;;;-0.60;1.00;;;;;;4941952;29;20518;-79
2023/12/18 01:32:44;;;;;;;222.75;134.65;;;-0.60;99.90;;;;;;4946577;29;20059;-78
2023/12/18 01:35:12;;;;;;;214.70;132.52;;;-0.60;99.90;;;;;;4946346;29;20062;-77
2023/12/18 01:37:39;;;;;;;248.02;152.75;;;-0.70;43.90;;;;;;4946852;29;20094;-78
2023/12/18 01:40:08;;;;;;;254.15;155.57;;;-0.70;99.90;;;;;;4945312;29;20043;-79
2023/12/18 01:42:37;;;;;;;224.40;138.60;;;-0.70;99.90;;;;;;4944865;29;20089;-78
2023/12/18 01:45:05;;;;;;;219.10;134.93;;;-0.60;99.90;;;;;;4946656;29;20562;-79
2023/12/18 01:47:34;;;;;;;217.55;132.65;;;-0.70;1.00;;;;;;4959435;29;20040;-79
2023/12/18 01:50:02;;;;;;;210.15;129.15;;;-0.70;99.90;;;;;;4962464;29;20043;-78
2023/12/18 01:52:30;;;;;;;185.90;117.60;;;-0.70;99.90;;;;;;4961961;29;20047;-78
2023/12/18 01:54:58;;;;;;;177.82;110.38;;;-0.60;99.90;;;;;;4952053;29;20043;-79
2023/12/18 01:57:26;;;;;;;170.15;106.53;;;-0.60;99.90;;;;;;4946824;29;20040;-78
2023/12/18 01:59:55;;;;;;;167.20;102.45;;;-0.60;99.90;;;;;;4947341;29;20130;-79
2023/12/18 02:02:22;;;;;;;181.05;110.63;;;-0.60;99.90;;;;;;4945955;29;20573;-77
2023/12/18 02:04:52;;;;;;;177.85;105.55;;;-0.70;99.90;;;;;;4944128;28;20050;-77
2023/12/18 02:07:34;;;;;;;165.70;104.50;;;-0.60;1.00;;;;;;4945954;29;20051;-79
2023/12/18 02:10:03;;;;;;;177.80;106.05;;;-0.70;1.00;;;;;;4943629;29;20051;-78
2023/12/18 02:12:31;;;;;;;157.23;97.85;;;-0.80;1.00;;;;;;4944160;29;20063;-77
2023/12/18 02:14:59;;;;;;;162.93;98.65;;;-0.80;42.00;;;;;;4940562;29;20066;-79
2023/12/18 02:17:26;;;;;;;157.00;100.20;;;-0.70;99.90;;;;;;4942287;29;20047;-79
2023/12/18 02:20:07;;;;;;;175.60;109.78;;;-0.70;1.00;;;;;;4950613;29;20039;-79
2023/12/18 02:22:51;;;;;;;182.70;116.32;;;-0.80;1.00;;;;;;4940742;29;20044;-79
2023/12/18 02:25:20;;;;;;;176.60;109.35;;;-0.80;1.00;;;;;;4943452;29;20043;-79
2023/12/18 02:27:49;;;;;;;164.70;106.70;;;-0.80;1.00;;;;;;4947960;29;20134;-80
2023/12/18 02:30:17;;;;;;;166.75;105.00;;;-0.90;1.00;;;;;;4946764;29;20050;-79
2023/12/18 02:32:45;;;;;;;170.38;103.85;;;-1.00;1.00;;;;;;4941957;29;20035;-78
2023/12/18 02:35:13;;;;;;;147.63;96.55;;;-0.80;99.90;;;;;;4944994;29;20054;-79
2023/12/18 02:37:41;;;;;;;150.40;96.45;;;-0.80;99.90;;;;;;4946506;29;20045;-79
2023/12/18 02:40:10;;;;;;;150.27;96.43;;;-0.70;99.90;;;;;;4944840;29;20036;-78
2023/12/18 02:42:38;;;;;;;157.23;96.40;;;-0.70;38.30;;;;;;4943240;29;20142;-77
2023/12/18 02:45:08;;;;;;;152.75;97.32;;;-0.70;1.00;;;;;;4944062;29;20042;-80
2023/12/18 02:47:35;;;;;;;166.32;102.63;;;-0.70;1.00;;;;;;4944658;29;20052;-77
2023/12/18 02:50:03;;;;;;;172.85;108.85;;;-0.70;1.00;;;;;;4942064;29;20105;-80
2023/12/18 02:52:31;;;;;;;176.10;114.47;;;-0.80;1.00;;;;;;4955849;29;20139;-78
2023/12/18 02:55:00;;;;;;;184.05;114.85;;;-0.90;1.00;;;;;;4944289;29;20066;-78
2023/12/18 02:57:29;;;;;;;189.23;119.63;;;-1.00;1.00;;;;;;4943113;29;20452;-79
2023/12/18 02:59:57;;;;;;;196.38;124.93;;;-1.00;1.00;;;;;;4944301;29;20270;-78
2023/12/18 03:02:25;;;;;;;179.18;109.85;;;-0.90;1.00;;;;;;4949532;29;20043;-79
2023/12/18 03:04:53;;;;;;;173.75;108.65;;;-1.00;1.00;;;;;;4945125;29;20607;-77
2023/12/18 03:07:20;;;;;;;170.27;106.93;;;-1.00;1.00;;;;;;4944836;29;20146;-78
2023/12/18 03:09:48;;;;;;;158.52;98.10;;;-1.00;1.00;;;;;;4946235;29;20070;-78
2023/12/18 03:12:16;;;;;;;146.52;92.90;;;-1.00;1.00;;;;;;4943146;29;20500;-80
2023/12/18 03:14:45;;;;;;;139.20;87.50;;;-1.00;47.40;;;;;;4943114;29;20633;-79
2023/12/18 03:17:12;;;;;;;135.00;84.53;;;-1.00;1.00;;;;;;4945141;29;20124;-79
2023/12/18 03:19:40;;;;;;;135.45;86.30;;;-1.00;1.00;;;;;;4943620;29;20083;-77
2023/12/18 03:22:07;;;;;;;156.68;96.00;;;-1.00;1.00;;;;;;4943826;29;20050;-78
2023/12/18 03:24:35;;;;;;;149.20;92.65;;;-1.00;1.00;;;;;;4943654;29;20531;-79
2023/12/18 03:27:02;;;;;;;160.45;96.15;;;-0.90;26.00;;;;;;4942602;29;20091;-78
2023/12/18 03:29:30;;;;;;;162.18;103.00;;;-0.90;2.20;;;;;;4943072;29;20471;-78
2023/12/18 03:32:00;;;;;;;139.80;91.32;;;-0.90;1.00;;;;;;4945246;29;20062;-79
2023/12/18 03:34:28;;;;;;;174.90;110.95;;;-0.90;1.00;;;;;;4946319;29;20068;-77
2023/12/18 03:36:55;;;;;;;170.65;107.13;;;-1.00;99.90;;;;;;4948851;29;20412;-79
2023/12/18 03:39:23;;;;;;;156.07;98.72;;;-1.20;1.00;;;;;;4952648;29;20068;-77
2023/12/18 03:41:51;;;;;;;153.68;95.65;;;-1.10;1.00;;;;;;4946044;29;20051;-77
2023/12/18 03:44:18;;;;;;;143.35;89.25;;;-1.10;1.00;;;;;;4945326;29;20069;-77
2023/12/18 03:46:46;;;;;;;144.40;91.40;;;-1.00;1.00;;;;;;4943087;29;20043;-81
2023/12/18 03:49:15;;;;;;;144.45;88.85;;;-0.90;1.00;;;;;;4942377;29;20047;-78
2023/12/18 03:51:43;;;;;;;148.35;89.25;;;-1.00;1.00;;;;;;4959245;28;20148;-79
2023/12/18 03:54:11;;;;;;;140.10;89.57;;;-1.10;1.00;;;;;;4941517;28;20050;-80
2023/12/18 03:56:38;;;;;;;144.88;86.82;;;-1.10;1.00;;;;;;4948573;29;20039;-78
2023/12/18 03:59:06;;;;;;;149.23;88.85;;;-1.10;1.00;;;;;;4948429;29;20102;-79
2023/12/18 04:01:34;;;;;;;149.80;93.10;;;-1.00;1.00;;;;;;4945149;29;20070;-79
2023/12/18 04:04:02;;;;;;;150.38;92.78;;;-1.00;1.00;;;;;;4945728;29;20035;-77
2023/12/18 04:06:31;;;;;;;147.40;93.10;;;-1.00;1.00;;;;;;4941810;29;20061;-77
2023/12/18 04:08:59;;;;;;;127.82;83.35;;;-1.00;1.00;;;;;;4942056;29;20643;-78
2023/12/18 04:11:27;;;;;;;135.63;84.53;;;-1.10;1.00;;;;;;4943275;29;20051;-79
2023/12/18 04:13:54;;;;;;;120.63;76.55;;;-1.10;1.00;;;;;;4942799;29;20043;-78
2023/12/18 04:16:22;;;;;;;123.95;77.03;;;-1.00;1.00;;;;;;4942925;29;20039;-79
2023/12/18 04:18:50;;;;;;;127.03;79.63;;;-1.00;1.00;;;;;;4945088;29;20079;-78
2023/12/18 04:21:18;;;;;;;138.45;85.05;;;-1.10;1.00;;;;;;4946012;29;20085;-78
2023/12/18 04:23:47;;;;;;;139.98;86.90;;;-1.10;1.00;;;;;;4946170;29;20047;-78
2023/12/18 04:26:15;;;;;;;135.07;83.18;;;-1.10;1.00;;;;;;4964501;28;20063;-78
2023/12/18 04:28:42;;;;;;;144.25;86.20;;;-1.20;1.00;;;;;;4966252;28;20149;-79
2023/12/18 04:31:10;;;;;;;145.38;90.95;;;-1.20;1.00;;;;;;4966125;28;20031;-78
2023/12/18 04:33:40;;;;;;;151.15;94.72;;;-1.20;1.00;;;;;;4965553;28;20058;-79
2023/12/18 04:36:08;;;;;;;157.52;96.63;;;-1.20;99.90;;;;;;4963614;29;20039;-79
2023/12/18 04:38:36;;;;;;;160.90;97.82;;;-1.30;1.00;;;;;;4964589;28;20051;-79
2023/12/18 04:41:05;;;;;;;158.75;95.07;;;-1.30;1.00;;;;;;4963928;29;20044;-79
2023/12/18 04:43:33;;;;;;;147.40;93.70;;;-1.30;1.00;;;;;;4949435;29;20075;-78
2023/12/18 04:46:00;;;;;;;150.48;94.30;;;-1.40;99.90;;;;;;4944868;29;20059;-77
2023/12/18 04:48:28;;;;;;;144.70;85.65;;;-1.50;1.00;;;;;;4948859;29;20044;-78
2023/12/18 04:50:56;;;;;;;119.13;76.70;;;-1.40;1.00;;;;;;4952496;29;20048;-78
2023/12/18 04:53:24;;;;;;;102.57;64.60;;;-1.30;1.00;;;;;;4947767;29;20069;-78
2023/12/18 04:55:52;;;;;;;104.80;67.15;;;-1.20;1.00;;;;;;4949747;29;20056;-77
2023/12/18 04:58:21;;;;;;;118.53;72.50;;;-1.20;1.00;;;;;;4944829;29;20123;-78
2023/12/18 05:00:52;;;;;;;164.43;103.35;;;-1.20;1.00;;;;;;4943352;29;20047;-79
2023/12/18 05:03:19;;;;;;;133.13;84.95;;;-1.10;1.00;;;;;;4942597;29;20051;-77
2023/12/18 05:05:47;;;;;;;132.00;84.97;;;-1.20;1.00;;;;;;4946549;28;20043;-78
2023/12/18 05:08:15;;;;;;;130.50;81.85;;;-1.20;1.00;;;;;;4950494;29;20094;-79
2023/12/18 05:10:42;;;;;;;131.90;79.72;;;-1.30;99.90;;;;;;4938848;29;20051;-79
2023/12/18 05:13:10;;;;;;;142.52;86.28;;;-1.30;1.00;;;;;;4943686;29;20059;-78
2023/12/18 05:15:39;;;;;;;145.07;88.25;;;-1.20;1.00;;;;;;4950301;29;20043;-77
2023/12/18 05:18:07;;;;;;;152.88;93.30;;;-1.20;99.90;;;;;;4946180;29;20043;-77
2023/12/18 05:20:35;;;;;;;150.95;99.05;;;-1.20;99.90;;;;;;4947259;29;20114;-78
2023/12/18 05:23:02;;;;;;;142.68;90.53;;;-1.20;99.90;;;;;;4943942;29;20043;-79
2023/12/18 05:25:30;;;;;;;134.25;85.40;;;-1.20;99.90;;;;;;4947530;29;20059;-77
2023/12/18 05:27:58;;;;;;;134.40;87.28;;;-1.30;99.90;;;;;;4952316;29;20047;-78
2023/12/18 05:30:27;;;;;;;139.85;92.47;;;-1.30;99.90;;;;;;4944639;29;20047;-78
2023/12/18 05:32:56;;;;;;;141.27;89.50;;;-1.20;99.90;;;;;;4943936;29;20055;-79
2023/12/18 05:35:24;;;;;;;128.18;81.43;;;-1.20;1.00;;;;;;4946090;29;20043;-78
2023/12/18 05:37:51;;;;;;;131.77;82.32;;;-1.20;99.90;;;;;;4944174;29;20040;-78
2023/12/18 05:40:19;;;;;;;126.93;81.97;;;-1.20;99.90;;;;;;4946285;29;20050;-79
2023/12/18 05:42:47;;;;;;;131.55;84.57;;;-1.20;99.90;;;;;;4947398;29;20054;-79
2023/12/18 05:45:14;;;;;;;134.85;86.85;;;-1.10;99.90;;;;;;4947011;29;20051;-79
2023/12/18 05:47:42;;;;;;;129.85;85.28;;;-1.20;99.90;;;;;;4944925;29;20039;-77
2023/12/18 05:50:13;;;;;;;127.28;83.85;;;-1.20;99.90;;;;;;4944683;29;20063;-79
2023/12/18 05:52:41;;;;;;;136.63;90.22;;;-1.40;99.90;;;;;;4945755;29;20035;-80
2023/12/18 05:55:10;;;;;;;154.77;98.53;;;-1.40;99.90;;;;;;4946773;29;20054;-79
2023/12/18 05:57:41;;;;;;;158.55;99.80;;;-1.40;99.90;;;;;;4935028;29;20478;-78
2023/12/18 06:00:10;;;;;;;163.63;102.32;;;-1.20;99.90;;;;;;4944898;29;20066;-79
2023/12/18 06:02:38;;;;;;;155.43;100.82;;;-1.20;99.90;;;;;;4935449;29;20484;-80
2023/12/18 06:05:07;;;;;;;157.48;101.93;;;-1.20;99.90;;;;;;4942176;29;20119;-79
2023/12/18 06:07:36;;;;;;;176.45;110.38;;;-1.20;99.90;;;;;;4942854;29;20044;-79
2023/12/18 06:10:04;;;;;;;179.43;114.40;;;-1.10;99.90;;;;;;4943639;29;20036;-77
2023/12/18 06:12:32;;;;;;;192.73;113.38;;;-1.10;99.90;;;;;;4926303;29;20043;-77
2023/12/18 06:14:59;;;;;;;178.60;112.93;;;-1.20;99.90;;;;;;4944904;29;20054;-78
2023/12/18 06:17:27;;;;;;;199.30;127.60;;;-1.20;99.90;;;;;;4961129;28;20447;-80
2023/12/18 06:19:55;;;;;;;173.35;113.85;;;-1.10;99.90;;;;;;4945641;29;20039;-78
2023/12/18 06:22:22;;;;;;;157.88;98.80;;;-1.10;99.90;;;;;;4952370;29;20054;-79
2023/12/18 06:24:52;;;;;;;152.48;99.40;;;-1.10;99.90;;;;;;4947839;29;20047;-77
2023/12/18 06:27:20;;;;;;;152.25;97.53;;;-1.10;99.90;;;;;;4934253;29;20432;-77
2023/12/18 06:29:48;;;;;;;169.32;110.20;;;-1.10;99.90;;;;;;4941127;29;20070;-79
2023/12/18 06:32:15;;;;;;;175.18;112.35;;;-1.10;99.90;;;;;;4945566;29;20076;-77
2023/12/18 06:34:44;;;;;;;178.20;110.32;;;-1.00;99.90;;;;;;4943380;29;20060;-79
2023/12/18 06:37:12;;;;;;;179.55;110.57;;;-1.00;99.90;;;;;;4943665;29;20046;-79
2023/12/18 06:39:39;;;;;;;177.63;110.80;;;-1.00;61.30;;;;;;4943670;29;20050;-78
2023/12/18 06:42:08;;;;;;;186.40;118.43;;;-1.10;44.40;;;;;;4943421;29;20043;-79
2023/12/18 06:44:36;;;;;;;189.35;117.28;;;-1.10;79.40;;;;;;4942192;29;20119;-79
2023/12/18 06:47:04;;;;;;;206.07;126.28;;;-1.10;99.90;;;;;;4942536;29;20562;-79
2023/12/18 06:49:32;;;;;;;150.48;95.05;;;-1.00;99.90;;;;;;4943551;28;20491;-78
2023/12/18 06:51:59;;;;;;;239.45;140.05;;;-1.00;99.90;;;;;;4942584;29;20387;-78
2023/12/18 06:54:26;;;;;;;319.58;182.65;;;-0.90;99.90;;;;;;4946735;29;20066;-78
2023/12/18 06:56:54;;;;;;;285.50;160.05;;;-0.80;97.90;;;;;;4944425;29;20101;-78
2023/12/18 06:59:24;;;;;;;294.15;176.77;;;-0.80;1.00;;;;;;4941777;29;20039;-79
2023/12/18 07:01:51;;;;;;;256.45;152.50;;;-0.70;1.00;;;;;;4941481;29;20071;-79
2023/12/18 07:04:21;;;;;;;243.15;148.63;;;-0.70;1.00;;;;;;4944387;29;20316;-77
2023/12/18 07:06:48;;;;;;;234.95;141.43;;;-0.70;1.00;;;;;;4943310;29;20083;-77
2023/12/18 07:09:16;;;;;;;226.23;138.27;;;-0.70;1.00;;;;;;4944162;29;20123;-78
2023/12/18 07:11:45;;;;;;;233.85;142.50;;;-0.60;1.00;;;;;;4942758;29;20058;-77
2023/12/18 07:14:14;;;;;;;242.60;148.57;;;-0.60;1.00;;;;;;4941457;29;20047;-83
2023/12/18 07:16:43;;;;;;;233.57;143.68;;;-0.50;1.00;;;;;;4941268;29;20054;-78
2023/12/18 07:19:11;;;;;;;237.27;146.57;;;-0.40;1.00;;;;;;4943090;29;20113;-80
2023/12/18 07:21:39;;;;;;;230.75;140.73;;;-0.50;1.00;;;;;;4943404;29;20036;-77
2023/12/18 07:24:07;;;;;;;240.40;144.88;;;-0.40;1.00;;;;;;4942592;29;20463;-78
2023/12/18 07:26:35;;;;;;;226.65;138.25;;;-0.30;1.00;;;;;;4942354;29;20035;-77
2023/12/18 07:29:02;;;;;;;232.93;137.30;;;-0.30;1.00;;;;;;4941644;29;20657;-77
2023/12/18 07:31:30;;;;;;;232.20;144.13;;;-0.10;1.00;;;;;;4943668;29;20051;-79
2023/12/18 07:33:59;;;;;;;241.25;147.80;;;0.00;1.00;;;;;;4943035;29;20062;-79
2023/12/18 07:36:27;;;;;;;275.25;170.57;;;0.10;1.00;;;;;;4943953;29;20411;-79
2023/12/18 07:38:55;;;;;;;295.48;181.60;;;0.20;1.00;;;;;;4943302;29;20262;-80
2023/12/18 07:41:22;;;;;;;284.85;171.85;;;0.30;1.00;;;;;;4943577;29;20051;-78
2023/12/18 07:43:50;;;;;;;289.20;172.93;;;0.50;99.90;;;;;;4943094;29;20436;-79
2023/12/18 07:46:18;;;;;;;281.02;172.07;;;0.60;99.90;;;;;;4943793;29;20143;-79
2023/12/18 07:48:48;;;;;;;284.88;169.38;;;0.70;99.90;;;;;;4944183;29;20039;-79
2023/12/18 07:51:17;;;;;;;277.80;176.55;;;0.80;99.90;;;;;;4943772;29;20043;-79
2023/12/18 07:53:45;;;;;;;266.00;162.35;;;0.80;99.90;;;;;;4949965;29;20075;-79
2023/12/18 07:56:13;;;;;;;239.00;141.98;;;0.90;99.90;;;;;;4945472;29;20075;-78
2023/12/18 07:58:41;;;;;;;244.10;147.23;;;0.90;99.90;;;;;;4940632;29;20075;-78
2023/12/18 08:01:09;;;;;;;222.57;135.90;;;1.00;99.90;;;;;;4942192;29;20040;-78
2023/12/18 08:03:36;;;;;;;179.57;112.85;;;1.10;99.90;;;;;;4943090;29;20079;-80
2023/12/18 08:06:04;;;;;;;216.70;130.57;;;1.20;99.90;;;;;;4943104;29;20645;-78
2023/12/18 08:08:33;;;;;;;221.10;137.38;;;1.30;99.90;;;;;;4942605;29;20495;-79
2023/12/18 08:11:00;;;;;;;214.23;136.05;;;1.40;99.90;;;;;;4942863;29;20126;-78
2023/12/18 08:13:28;;;;;;;217.70;134.30;;;1.30;99.90;;;;;;4942572;29;20400;-79
2023/12/18 08:15:56;;;;;;;217.93;138.88;;;1.40;99.90;;;;;;4940463;29;20058;-78
2023/12/18 08:18:23;;;;;;;232.70;144.68;;;1.50;99.90;;;;;;4941712;29;20050;-79
2023/12/18 08:20:51;;;;;;;226.00;140.45;;;1.60;99.90;;;;;;4941013;29;20047;-78
2023/12/18 08:23:18;;;;;;;221.85;137.60;;;1.70;99.90;;;;;;4941712;28;20117;-77
2023/12/18 08:25:47;;;;;;;218.77;135.25;;;1.90;99.90;;;;;;4943536;29;20054;-79
2023/12/18 08:28:15;;;;;;;214.35;133.73;;;1.90;99.90;;;;;;4942531;29;20047;-78
2023/12/18 08:30:44;;;;;;;184.95;114.65;;;1.90;83.50;;;;;;4942761;29;20508;-80
2023/12/18 08:33:11;;;;;;;180.98;113.55;;;1.80;94.90;;;;;;4942987;29;20059;-78
2023/12/18 08:35:39;;;;;;;179.90;113.80;;;1.70;99.90;;;;;;4942292;29;20047;-78
2023/12/18 08:38:07;;;;;;;157.82;101.05;;;1.90;99.90;;;;;;4942568;29;20082;-80
2023/12/18 08:40:35;;;;;;;149.10;95.30;;;2.10;99.90;;;;;;4941848;29;20186;-77
2023/12/18 08:43:04;;;;;;;135.35;88.85;;;2.30;99.90;;;;;;4945379;29;20118;-79
2023/12/18 08:45:32;;;;;;;155.35;101.38;;;2.50;99.90;;;;;;4943036;29;20052;-78
2023/12/18 08:48:01;;;;;;;156.25;102.72;;;2.60;99.90;;;;;;4950781;29;20078;-78
2023/12/18 08:50:29;;;;;;;161.68;103.03;;;2.70;99.90;;;;;;4951486;29;20047;-80
2023/12/18 08:52:56;;;;;;;159.88;103.22;;;2.80;99.90;;;;;;4951571;29;20035;-79
2023/12/18 08:55:24;;;;;;;147.20;95.43;;;2.90;99.90;;;;;;4953380;29;20055;-79
2023/12/18 08:57:51;;;;;;;135.57;91.05;;;3.00;99.90;;;;;;4949883;29;20123;-78
2023/12/18 09:00:22;;;;;;;132.27;84.95;;;3.10;99.90;;;;;;4942991;29;20043;-79
2023/12/18 09:02:49;;;;;;;115.75;74.40;;;3.20;99.90;;;;;;4943297;29;20122;-79
2023/12/18 09:05:17;;;;;;;110.45;70.90;;;3.30;99.90;;;;;;4942233;29;20046;-79
2023/12/18 09:07:45;;;;;;;112.45;74.43;;;3.40;99.90;;;;;;4942926;29;20126;-79
2023/12/18 09:10:14;;;;;;;117.75;75.75;;;3.50;99.90;;;;;;4942722;29;20032;-80
2023/12/18 09:12:41;;;;;;;122.65;75.55;;;3.60;99.90;;;;;;4941685;29;20074;-79
2023/12/18 09:15:10;;;;;;;125.07;76.25;;;3.70;99.90;;;;;;4941470;29;20090;-80
2023/12/18 09:17:39;;;;;;;124.70;73.28;;;3.90;99.90;;;;;;4959080;28;20047;-78
2023/12/18 09:20:11;;;;;;;118.07;68.80;;;4.00;72.90;;;;;;4942044;29;20094;-79
2023/12/18 09:22:42;;;;;;;127.95;76.72;;;4.20;41.30;;;;;;4937403;29;20074;-80
2023/12/18 09:25:10;;;;;;;130.75;77.05;;;4.30;1.00;;;;;;4942867;29;20039;-79
2023/12/18 09:27:38;;;;;;;130.55;79.65;;;4.40;1.00;;;;;;4940684;29;20051;-78
2023/12/18 09:30:07;;;;;;;126.47;76.55;;;4.60;1.00;;;;;;4941017;29;20087;-78
2023/12/18 09:32:35;;;;;;;145.25;87.72;;;4.70;1.00;;;;;;4941574;29;20042;-84
2023/12/18 09:35:04;;;;;;;154.35;92.93;;;4.80;1.00;;;;;;4941963;29;20056;-79
2023/12/18 09:37:32;;;;;;;149.73;89.55;;;4.80;1.00;;;;;;4958162;23;20031;-75
2023/12/18 09:40:00;;;;;;;122.35;72.55;;;4.90;1.00;;;;;;4966594;28;20110;-75
2023/12/18 09:42:29;;;;;;;115.07;69.72;;;5.10;1.00;;;;;;4954656;29;20046;-76
2023/12/18 09:45:23;;;;;;;98.53;61.22;;;5.10;1.00;;;;;;4957593;28;20063;-77
2023/12/18 09:47:51;;;;;;;103.03;63.65;;;5.20;1.00;;;;;;4938526;29;20102;-76
2023/12/18 09:50:20;;;;;;;96.20;57.03;;;5.30;1.00;;;;;;4954408;28;20040;-76
2023/12/18 09:52:57;;;;;;;87.90;52.35;;;5.30;1.00;;;;;;4959231;29;20118;-78
2023/12/18 09:55:25;;;;;;;85.32;51.20;;;5.50;1.00;;;;;;4941293;29;20051;-75
2023/12/18 09:57:55;;;;;;;84.60;49.95;;;5.60;1.00;;;;;;4942411;29;20058;-74
2023/12/18 10:00:24;;;;;;;87.13;53.95;;;5.80;1.00;;;;;;4941390;29;20407;-73
2023/12/18 10:02:52;;;;;;;89.97;57.53;;;6.00;1.00;;;;;;4956116;29;20399;-76
2023/12/18 10:05:21;;;;;;;87.47;54.97;;;6.10;1.00;;;;;;4959524;29;20043;-75
2023/12/18 10:07:49;;;;;;;89.13;56.65;;;6.20;1.00;;;;;;4958146;29;20046;-74
2023/12/18 10:10:17;;;;;;;88.53;56.97;;;6.30;1.00;;;;;;4957653;28;20053;-75
2023/12/18 10:12:45;;;;;;;83.68;51.42;;;6.50;1.00;;;;;;4958707;29;20043;-74
2023/12/18 10:15:12;;;;;;;68.85;44.53;;;6.50;1.00;;;;;;4960818;29;20078;-73
2023/12/18 10:17:40;;;;;;;73.70;45.30;;;6.60;1.00;;;;;;4962219;29;20053;-74
2023/12/18 10:20:09;;;;;;;78.63;49.03;;;6.70;1.00;;;;;;4960514;28;20059;-75
2023/12/18 10:22:39;;;;;;;79.80;49.33;;;6.80;99.90;;;;;;4956014;29;20117;-75
2023/12/18 10:25:09;;;;;;;84.20;53.28;;;6.90;99.90;;;;;;4937932;29;20055;-75
2023/12/18 10:27:38;;;;;;;77.60;50.67;;;7.00;99.90;;;;;;4954792;29;20526;-74
2023/12/18 10:30:07;;;;;;;79.63;48.58;;;7.10;99.90;;;;;;4960361;28;20111;-74
2023/12/18 10:32:36;;;;;;;74.57;45.97;;;7.20;99.90;;;;;;4959080;29;20038;-74
2023/12/18 10:35:05;;;;;;;76.68;47.95;;;7.30;99.90;;;;;;4963885;29;20078;-76
2023/12/18 10:37:33;;;;;;;73.00;45.63;;;7.40;99.90;;;;;;4955972;29;20059;-76
2023/12/18 10:40:06;;;;;;;76.93;47.88;;;7.50;99.90;;;;;;4963079;28;20043;-80
2023/12/18 10:42:36;;;;;;;79.55;47.20;;;7.60;99.90;;;;;;4961851;29;20128;-75
2023/12/18 10:45:06;;;;;;;68.05;42.78;;;7.70;99.90;;;;;;4967404;29;20070;-75
2023/12/18 10:47:34;;;;;;;64.95;40.58;;;7.80;99.90;;;;;;4972630;29;20044;-76
2023/12/18 10:50:03;;;;;;;66.53;42.90;;;7.90;99.90;;;;;;4960717;28;20047;-79
2023/12/18 10:52:31;;;;;;;70.18;46.28;;;8.00;99.90;;;;;;4958243;29;20046;-76
2023/12/18 10:55:00;;;;;;;87.63;51.35;;;8.10;99.90;;;;;;4959462;29;20047;-77
2023/12/18 10:57:29;;;;;;;85.32;52.20;;;8.10;99.90;;;;;;4957023;29;20149;-74
2023/12/18 10:59:58;;;;;;;88.38;55.33;;;8.20;99.90;;;;;;4958315;28;20043;-77
2023/12/18 11:02:26;;;;;;;93.75;57.20;;;8.30;99.90;;;;;;4962795;28;20031;-77
2023/12/18 11:04:55;;;;;;;102.95;63.85;;;8.30;99.90;;;;;;4963148;29;20062;-74
2023/12/18 11:07:24;;;;;;;113.13;69.78;;;8.40;99.90;;;;;;4955297;29;20511;-75
2023/12/18 11:09:52;;;;;;;111.78;69.30;;;8.40;99.90;;;;;;4954667;28;20077;-75
2023/12/18 11:12:21;;;;;;;121.65;75.38;;;8.50;99.90;;;;;;4936878;29;20088;-77
2023/12/18 11:15:03;;;;;;;116.22;73.60;;;8.60;99.90;;;;;;4958132;29;20071;-74
2023/12/18 11:17:38;;;;;;;112.40;68.88;;;8.70;99.40;;;;;;4959083;29;20051;-76
2023/12/18 11:20:09;;;;;;;;;;;8.80;88.90;;;;;;4946629;29;20125;-74
2023/12/18 11:22:41;;;;;;;123.32;75.63;;;8.90;82.50;;;;;;4966779;29;20028;-74
2023/12/18 11:25:10;;;;;;;128.15;79.80;;;9.00;83.20;;;;;;4966405;29;20063;-74
2023/12/18 11:27:40;;;;;;;125.40;77.50;;;9.00;85.60;;;;;;4966419;29;20043;-76
2023/12/18 11:30:23;;;;;;;121.57;76.95;;;9.00;95.00;;;;;;4963604;28;20035;-73
2023/12/18 11:32:51;;;;;;;117.35;75.40;;;9.00;99.50;;;;;;4944139;29;20050;-75
2023/12/18 11:35:28;;;;;;;119.10;72.80;;;9.00;98.50;;;;;;4960313;29;20047;-75
2023/12/18 11:38:03;;;;;;;108.68;71.05;;;9.10;99.90;;;;;;4963465;29;20047;-73
2023/12/18 11:40:41;;;;;;;114.27;72.03;;;9.10;99.90;;;;;;4956754;29;20039;-76
2023/12/18 11:43:11;;;;;;;112.60;69.00;;;9.10;99.90;;;;;;4967612;29;20039;-76
2023/12/18 11:45:43;;;;;;;106.80;69.53;;;9.20;99.90;;;;;;4963415;29;20070;-77
2023/12/18 11:48:16;;;;;;;100.78;65.80;;;9.20;99.90;;;;;;4948194;28;20047;-74
2023/12/18 11:50:43;;;;;;;103.25;67.70;;;9.20;99.90;;;;;;4967200;29;20091;-77
2023/12/18 11:53:28;;;;;;;99.80;64.78;;;9.30;99.90;;;;;;4958030;29;20039;-78
2023/12/18 11:55:56;;;;;;;93.25;63.25;;;9.40;99.90;;;;;;4954060;29;20142;-77
2023/12/18 11:58:27;;;;;;;103.30;64.43;;;9.50;99.90;;;;;;4936784;28;20047;-75
2023/12/18 12:00:56;;;;;;;93.43;62.55;;;9.50;98.70;;;;;;4954752;29;20499;-77
2023/12/18 12:03:26;;;;;;;99.40;62.90;;;9.50;97.30;;;;;;4974495;29;20043;-78
2023/12/18 12:05:54;;;;;;;96.35;62.30;;;9.60;92.60;;;;;;4976200;28;20047;-76
2023/12/18 12:08:21;;;;;;;96.57;63.03;;;9.70;70.60;;;;;;4956044;29;20095;-78
2023/12/18 12:10:50;;;;;;;92.68;62.30;;;9.70;59.60;;;;;;4954431;29;20480;-78
2023/12/18 12:13:19;;;;;;;99.07;63.13;;;9.70;52.60;;;;;;4938728;28;20507;-76
2023/12/18 12:15:58;;;;;;;92.68;61.60;;;9.70;50.10;;;;;;4938774;29;20047;-77
2023/12/18 12:18:27;;;;;;;94.82;63.08;;;9.70;41.10;;;;;;4955187;28;20410;-77
2023/12/18 12:20:54;;;;;;;92.60;62.58;;;9.80;31.40;;;;;;4955603;29;20065;-76
2023/12/18 12:23:23;;;;;;;90.63;60.28;;;9.80;17.50;;;;;;4935991;29;20050;-77
2023/12/18 12:25:53;;;;;;;87.60;56.13;;;9.90;13.40;;;;;;4954709;29;20059;-76
2023/12/18 12:28:21;;;;;;;84.32;57.53;;;9.90;2.30;;;;;;4937631;29;20550;-77
2023/12/18 12:30:50;;;;;;;82.85;55.22;;;9.90;1.00;;;;;;4938385;29;20058;-74